Empalme Querandies, Argentina
Current Conditions -  °F | °C
As of 11:00 AM on Friday 31 Oct 2014 (Local Time) from SAZM Reporting Station
Broken Clouds Broken Clouds  
Wind Chill: 15°   Ceiling: 10000
Heat Index: 15°   Visibility: 6mi
Dew Point:   Wind: 8mph
Humidity: 39%   Direction: 140°SE
Pressure: 30.06"   Gusts: NA
Location:  36.93°S, 60.31°W
Report Text: SAZM 311400Z 14007KT 9999 FEW030 BKN10015/01 Q1018
Loading
Personal Weather Stations






























Interactive Weather Map
Tropical Storm Tracking
New forecast layout! Learn more

10-Day Weather Forecast

Advertisements
Track Severe Weather on mobile